Time;durP1;ratioP1;P1;durP2;ratioP2;P2;SDS_P1;SDS_P2;PMS_P1;PMS_P2;Temp;Humidity;BMP_temperature;BMP_pressure;BME280_temperature;BME280_humidity;BME280_pressure;Samples;Min_cycle;Max_cycle;Signal;HPM_P1;HPM_P2
2023/06/22 00:00:42;;;;;;;1.90;1.50;;;23.80;92.50;;;;;;5114854;27;48169;-62
2023/06/22 00:03:09;;;;;;;2.00;1.40;;;23.80;92.30;;;;;;5111470;27;45202;-62
2023/06/22 00:05:35;;;;;;;1.60;1.40;;;23.70;92.70;;;;;;5115438;27;45367;-62
2023/06/22 00:08:05;;;;;;;2.22;1.60;;;23.70;92.30;;;;;;5121267;27;45562;-62
2023/06/22 00:10:32;;;;;;;2.88;1.60;;;23.80;92.30;;;;;;5106209;27;48348;-63
2023/06/22 00:12:59;;;;;;;2.03;1.30;;;23.70;92.20;;;;;;5115402;27;45209;-62
2023/06/22 00:15:27;;;;;;;1.83;1.20;;;23.70;92.00;;;;;;5124027;27;45218;-61
2023/06/22 00:17:54;;;;;;;2.53;1.67;;;23.80;92.30;;;;;;5123960;27;45481;-62
2023/06/22 00:20:22;;;;;;;1.90;1.40;;;23.70;92.20;;;;;;5116558;27;47528;-61
2023/06/22 00:22:49;;;;;;;1.20;1.10;;;23.70;92.30;;;;;;5125730;27;45287;-62
2023/06/22 00:25:16;;;;;;;1.15;1.05;;;23.70;92.20;;;;;;5125464;27;45236;-62
2023/06/22 00:27:42;;;;;;;1.77;1.30;;;23.70;92.30;;;;;;5124941;27;45215;-62
2023/06/22 00:30:10;;;;;;;1.83;1.48;;;23.70;92.20;;;;;;5116371;27;46618;-62
2023/06/22 00:32:38;;;;;;;1.77;1.30;;;23.70;92.20;;;;;;5124365;27;46149;-62
2023/06/22 00:35:05;;;;;;;2.20;1.50;;;23.70;92.10;;;;;;5125261;27;45366;-62
2023/06/22 00:37:32;;;;;;;1.70;1.30;;;23.70;92.10;;;;;;5122396;27;45372;-62
2023/06/22 00:39:59;;;;;;;2.08;1.30;;;23.70;92.00;;;;;;5109034;27;46606;-62
2023/06/22 00:42:26;;;;;;;1.63;1.33;;;23.70;92.00;;;;;;5119774;27;45363;-62
2023/06/22 00:44:52;;;;;;;1.40;1.20;;;23.70;92.00;;;;;;5125278;27;45308;-61
2023/06/22 00:47:19;;;;;;;1.73;1.33;;;23.70;92.00;;;;;;5125241;27;45169;-62
2023/06/22 00:49:50;;;;;;;2.60;1.40;;;23.70;91.90;;;;;;5124004;27;46306;-62
2023/06/22 00:52:20;;;;;;;1.70;1.50;;;23.70;91.80;;;;;;5121288;27;45409;-62
2023/06/22 00:54:48;;;;;;;1.88;1.40;;;23.70;91.70;;;;;;5113080;27;45311;-61
2023/06/22 00:57:16;;;;;;;2.45;1.50;;;23.70;91.70;;;;;;5121314;27;45699;-64
2023/06/22 00:59:44;;;;;;;1.20;1.10;;;23.70;91.70;;;;;;5111516;27;46665;-62
2023/06/22 01:02:11;;;;;;;2.03;1.58;;;23.70;91.60;;;;;;5113014;27;45312;-62
2023/06/22 01:04:39;;;;;;;2.47;1.42;;;23.70;91.60;;;;;;5124184;27;45409;-62
2023/06/22 01:07:13;;;;;;;1.70;1.17;;;23.70;91.50;;;;;;5124321;27;45239;-62
2023/06/22 01:09:47;;;;;;;3.13;1.30;;;23.70;91.50;;;;;;5123360;27;46479;-62
2023/06/22 01:12:16;;;;;;;1.88;1.27;;;23.70;91.50;;;;;;5074893;27;1096665;-62
2023/06/22 01:14:48;;;;;;;1.67;1.15;;;23.70;91.40;;;;;;5115940;27;45349;-62
2023/06/22 01:17:18;;;;;;;1.80;1.30;;;23.70;91.40;;;;;;5119521;27;45494;-62
2023/06/22 01:19:46;;;;;;;1.80;1.30;;;23.70;91.50;;;;;;5125260;27;46316;-61
2023/06/22 01:22:17;;;;;;;2.20;1.23;;;23.70;91.40;;;;;;5122084;27;45979;-62
2023/06/22 01:24:55;;;;;;;1.55;1.10;;;23.70;91.40;;;;;;5117419;27;45390;-62
2023/06/22 01:27:34;;;;;;;1.52;1.30;;;23.70;91.40;;;;;;5111502;27;45421;-62
2023/06/22 01:30:05;;;;;;;1.73;1.38;;;23.70;91.40;;;;;;5119071;27;48010;-61
2023/06/22 01:32:33;;;;;;;1.23;1.13;;;23.70;91.50;;;;;;5116921;27;45147;-62
2023/06/22 01:35:04;;;;;;;1.60;1.40;;;23.70;91.60;;;;;;5122679;27;45430;-62
2023/06/22 01:37:32;;;;;;;3.25;1.75;;;23.70;91.50;;;;;;5118005;27;45308;-62
2023/06/22 01:40:00;;;;;;;1.90;1.38;;;23.70;91.50;;;;;;5109188;27;47567;-62
2023/06/22 01:42:27;;;;;;;2.05;1.50;;;23.70;91.50;;;;;;5123510;27;45422;-62
2023/06/22 01:44:54;;;;;;;1.88;1.40;;;23.70;91.50;;;;;;5120321;27;45153;-62
2023/06/22 01:47:23;;;;;;;1.50;1.20;;;23.70;91.50;;;;;;5122587;27;45574;-62
2023/06/22 01:49:52;;;;;;;1.48;1.30;;;23.70;91.40;;;;;;5112309;27;45497;-63
2023/06/22 01:52:20;;;;;;;2.47;1.50;;;23.70;91.50;;;;;;5122585;27;45386;-62
2023/06/22 01:54:48;;;;;;;1.65;1.20;;;23.70;91.40;;;;;;5125672;27;45262;-62
2023/06/22 01:57:14;;;;;;;2.15;1.65;;;23.70;91.40;;;;;;5125176;27;45488;-62
2023/06/22 01:59:51;;;;;;;1.48;1.38;;;23.70;91.50;;;;;;5124496;27;46597;-62
2023/06/22 02:02:26;;;;;;;2.53;1.45;;;23.70;91.40;;;;;;5124710;27;45321;-62
2023/06/22 02:04:58;;;;;;;2.38;1.38;;;23.70;91.40;;;;;;5113459;27;45372;-62
2023/06/22 02:07:30;;;;;;;1.75;1.30;;;23.70;91.40;;;;;;5111422;27;45322;-62
2023/06/22 02:09:58;;;;;;;2.03;1.50;;;23.70;91.50;;;;;;5123057;27;45268;-62
2023/06/22 02:12:27;;;;;;;2.67;1.50;;;23.70;91.50;;;;;;5124764;27;45282;-62
2023/06/22 02:14:54;;;;;;;3.10;1.38;;;23.70;91.40;;;;;;5125208;27;45205;-62
2023/06/22 02:17:24;;;;;;;1.63;1.40;;;23.70;91.50;;;;;;5113645;27;45274;-62
2023/06/22 02:19:51;;;;;;;1.58;1.25;;;23.70;91.50;;;;;;5124772;27;49199;-62
2023/06/22 02:22:17;;;;;;;2.05;1.60;;;23.70;91.60;;;;;;5125152;27;45466;-62
2023/06/22 02:24:44;;;;;;;2.47;1.50;;;23.70;91.60;;;;;;5113290;27;45195;-63
2023/06/22 02:27:12;;;;;;;2.25;1.40;;;23.70;91.70;;;;;;5121695;27;45267;-63
2023/06/22 02:29:39;;;;;;;1.80;1.35;;;23.70;91.70;;;;;;5117392;27;48220;-62
2023/06/22 02:32:06;;;;;;;1.88;1.30;;;23.70;91.70;;;;;;5118567;27;45401;-62
2023/06/22 02:34:34;;;;;;;2.03;1.30;;;23.70;91.70;;;;;;5109430;27;45326;-62
2023/06/22 02:37:02;;;;;;;2.38;1.48;;;23.70;91.80;;;;;;5128743;27;45362;-63
2023/06/22 02:39:29;;;;;;;1.90;1.67;;;23.70;92.20;;;;;;5127090;27;46492;-62
2023/06/22 02:41:56;;;;;;;2.03;1.45;;;23.70;91.80;;;;;;5113469;27;45339;-62
2023/06/22 02:44:23;;;;;;;1.90;1.20;;;23.70;91.80;;;;;;5128598;27;45415;-62
2023/06/22 02:46:50;;;;;;;2.20;1.48;;;23.70;91.80;;;;;;5120062;27;45219;-62
2023/06/22 02:49:16;;;;;;;1.83;1.40;;;23.70;91.70;;;;;;5121086;27;49011;-62
2023/06/22 02:51:47;;;;;;;2.10;1.30;;;23.70;91.60;;;;;;5115947;27;45452;-62
2023/06/22 02:54:13;;;;;;;1.90;1.35;;;23.70;91.60;;;;;;5115118;27;45433;-62
2023/06/22 02:56:43;;;;;;;2.83;1.70;;;23.70;91.60;;;;;;5116288;27;45217;-62
2023/06/22 02:59:10;;;;;;;2.53;1.40;;;23.70;91.60;;;;;;5114337;27;48129;-62
2023/06/22 03:01:39;;;;;;;1.75;1.55;;;23.70;91.60;;;;;;5127566;27;45326;-63
2023/06/22 03:04:06;;;;;;;1.52;1.38;;;23.70;91.70;;;;;;5128060;27;45374;-62
2023/06/22 03:06:33;;;;;;;2.65;1.63;;;23.70;91.60;;;;;;5109360;27;45304;-63
2023/06/22 03:09:03;;;;;;;2.28;1.50;;;23.70;91.60;;;;;;5127166;27;46608;-62
2023/06/22 03:11:30;;;;;;;1.73;1.52;;;23.70;91.60;;;;;;5122363;27;45437;-63
2023/06/22 03:13:57;;;;;;;1.73;1.33;;;23.70;91.60;;;;;;5112654;27;45287;-62
2023/06/22 03:16:24;;;;;;;1.80;1.50;;;23.70;91.70;;;;;;5107071;27;45382;-62
2023/06/22 03:18:51;;;;;;;1.90;1.65;;;23.70;91.70;;;;;;5115737;27;47616;-62
2023/06/22 03:21:17;;;;;;;1.90;1.60;;;23.70;91.70;;;;;;5127384;27;45338;-62
2023/06/22 03:23:44;;;;;;;2.03;1.50;;;23.70;91.80;;;;;;5127929;27;45504;-62
2023/06/22 03:26:12;;;;;;;2.38;1.58;;;23.70;92.00;;;;;;5127481;27;45311;-63
2023/06/22 03:28:39;;;;;;;2.33;1.98;;;23.70;91.90;;;;;;5126642;27;46573;-62
2023/06/22 03:31:07;;;;;;;2.35;1.88;;;23.70;91.90;;;;;;5125830;27;45393;-63
2023/06/22 03:33:34;;;;;;;2.38;1.60;;;23.60;91.90;;;;;;5116659;27;45480;-63
2023/06/22 03:36:00;;;;;;;3.08;2.10;;;23.60;92.10;;;;;;5127490;27;45435;-63
2023/06/22 03:38:27;;;;;;;2.75;1.95;;;23.60;92.20;;;;;;5120429;27;47566;-63
2023/06/22 03:40:54;;;;;;;3.40;2.25;;;23.60;92.30;;;;;;5118936;27;45237;-63
2023/06/22 03:43:22;;;;;;;4.03;1.90;;;23.60;92.50;;;;;;5127340;27;45415;-64
2023/06/22 03:45:49;;;;;;;3.00;1.65;;;23.60;92.40;;;;;;5118845;27;45206;-64
2023/06/22 03:48:15;;;;;;;2.67;2.00;;;23.60;92.50;;;;;;5126373;27;45273;-64
2023/06/22 03:50:43;;;;;;;2.20;1.52;;;23.60;92.60;;;;;;5126883;27;45263;-63
2023/06/22 03:53:10;;;;;;;3.47;1.77;;;23.60;92.70;;;;;;5126646;27;45217;-63
2023/06/22 03:55:37;;;;;;;1.98;1.63;;;23.60;93.00;;;;;;5123419;27;45255;-63
2023/06/22 03:58:05;;;;;;;3.20;2.03;;;23.60;93.10;;;;;;5126084;27;45475;-63
2023/06/22 04:00:33;;;;;;;3.42;1.85;;;23.60;93.20;;;;;;5109950;27;45392;-63
2023/06/22 04:03:00;;;;;;;2.42;2.00;;;23.60;93.40;;;;;;5113500;27;45403;-63
2023/06/22 04:05:27;;;;;;;2.97;1.73;;;23.60;93.50;;;;;;5124585;27;45431;-63
2023/06/22 04:07:53;;;;;;;2.05;1.38;;;23.60;93.50;;;;;;5112573;27;46278;-64
2023/06/22 04:10:20;;;;;;;2.20;1.80;;;23.60;93.70;;;;;;5125473;27;45328;-63
2023/06/22 04:12:48;;;;;;;5.45;1.90;;;23.60;93.80;;;;;;5109944;27;45193;-63
2023/06/22 04:15:15;;;;;;;2.88;1.98;;;23.60;93.80;;;;;;5113509;27;45347;-63
2023/06/22 04:17:43;;;;;;;3.20;2.10;;;23.60;93.90;;;;;;5111904;27;46537;-63
2023/06/22 04:20:10;;;;;;;2.15;1.85;;;23.60;94.10;;;;;;5115305;27;45465;-63
2023/06/22 04:22:36;;;;;;;2.38;1.90;;;23.60;94.10;;;;;;5125581;27;45356;-63
2023/06/22 04:25:04;;;;;;;3.38;2.15;;;23.60;94.20;;;;;;5126663;27;45430;-63
2023/06/22 04:27:30;;;;;;;2.50;1.70;;;23.50;94.20;;;;;;5124821;27;47540;-63
2023/06/22 04:30:00;;;;;;;2.22;1.70;;;23.60;94.50;;;;;;5126270;27;45254;-63
2023/06/22 04:32:26;;;;;;;3.03;2.08;;;23.60;94.60;;;;;;5125798;27;45334;-62
2023/06/22 04:34:54;;;;;;;2.13;1.60;;;23.50;94.50;;;;;;5119208;27;45520;-63
2023/06/22 04:37:23;;;;;;;2.70;1.90;;;23.50;94.50;;;;;;5114146;27;47566;-63
2023/06/22 04:39:50;;;;;;;2.13;1.85;;;23.50;94.60;;;;;;5118576;27;45364;-63
2023/06/22 04:42:16;;;;;;;2.60;1.90;;;23.50;94.60;;;;;;5122397;27;45315;-63
2023/06/22 04:44:43;;;;;;;3.28;1.73;;;23.50;94.60;;;;;;5124397;27;45568;-63
2023/06/22 04:47:10;;;;;;;2.35;1.80;;;23.50;94.60;;;;;;5113168;27;46263;-63
2023/06/22 04:49:37;;;;;;;3.35;2.17;;;23.50;94.70;;;;;;5114671;27;45944;-63
2023/06/22 04:52:08;;;;;;;2.15;1.65;;;23.50;94.70;;;;;;5105521;27;45324;-63
2023/06/22 04:54:36;;;;;;;2.35;1.88;;;23.60;94.80;;;;;;5123890;27;45439;-62
2023/06/22 04:57:04;;;;;;;2.75;1.90;;;23.60;94.70;;;;;;5106347;27;46611;-63
2023/06/22 04:59:32;;;;;;;2.92;1.92;;;23.50;94.70;;;;;;5117436;27;45810;-63
2023/06/22 05:02:00;;;;;;;2.15;1.60;;;23.60;94.80;;;;;;5124923;27;45475;-63
2023/06/22 05:04:27;;;;;;;1.83;1.60;;;23.50;94.70;;;;;;5115209;27;45430;-62
2023/06/22 05:06:55;;;;;;;2.53;1.75;;;23.60;94.90;;;;;;5125351;27;46547;-63
2023/06/22 05:09:24;;;;;;;2.75;1.58;;;23.60;94.80;;;;;;5123477;27;45203;-63
2023/06/22 05:11:51;;;;;;;2.28;1.83;;;23.60;94.90;;;;;;5117103;27;45438;-63
2023/06/22 05:14:18;;;;;;;2.25;1.80;;;23.60;94.90;;;;;;5122819;27;45332;-63
2023/06/22 05:16:46;;;;;;;2.53;2.10;;;23.60;94.90;;;;;;5125667;27;46582;-63
2023/06/22 05:19:13;;;;;;;1.98;1.77;;;23.60;94.90;;;;;;5124698;27;45478;-63
2023/06/22 05:21:39;;;;;;;1.92;1.65;;;23.60;95.10;;;;;;5113245;27;45448;-63
2023/06/22 05:24:07;;;;;;;3.10;2.05;;;23.60;95.10;;;;;;5116781;27;45260;-63
2023/06/22 05:26:35;;;;;;;2.63;1.77;;;23.60;95.20;;;;;;5121084;27;47080;-63
2023/06/22 05:29:03;;;;;;;2.17;1.70;;;23.60;95.30;;;;;;5114903;27;45416;-63
2023/06/22 05:31:31;;;;;;;2.60;1.80;;;23.60;95.30;;;;;;5122863;27;45437;-63
2023/06/22 05:33:58;;;;;;;3.05;2.03;;;23.60;95.30;;;;;;5123764;27;45244;-63
2023/06/22 05:36:25;;;;;;;2.67;1.80;;;23.60;95.30;;;;;;5116489;27;46307;-63
2023/06/22 05:38:53;;;;;;;3.38;2.13;;;23.60;95.30;;;;;;5117020;27;45338;-63
2023/06/22 05:41:20;;;;;;;3.38;2.38;;;23.60;95.30;;;;;;5118273;27;45350;-62
2023/06/22 05:43:48;;;;;;;3.38;2.10;;;23.60;95.40;;;;;;5113407;27;45276;-63
2023/06/22 05:46:15;;;;;;;3.00;2.38;;;23.60;95.30;;;;;;5119911;27;46401;-63
2023/06/22 05:48:41;;;;;;;2.90;2.05;;;23.60;95.30;;;;;;5115994;27;45565;-63
2023/06/22 05:51:08;;;;;;;2.13;1.85;;;23.60;95.30;;;;;;5123883;27;45239;-63
2023/06/22 05:53:35;;;;;;;1.85;1.65;;;23.60;95.30;;;;;;5122474;27;45697;-64
2023/06/22 05:56:01;;;;;;;2.50;1.90;;;23.60;95.30;;;;;;5117796;27;46291;-63
2023/06/22 05:58:28;;;;;;;1.70;1.50;;;23.60;95.30;;;;;;5114549;27;45515;-63
2023/06/22 06:00:56;;;;;;;2.58;2.00;;;23.60;95.30;;;;;;5113936;27;45336;-63
2023/06/22 06:03:23;;;;;;;2.45;1.88;;;23.60;95.30;;;;;;5116315;27;45416;-64
2023/06/22 06:05:50;;;;;;;2.00;1.70;;;23.60;95.30;;;;;;5117333;27;47041;-63
2023/06/22 06:08:17;;;;;;;3.80;1.80;;;23.60;95.30;;;;;;5123832;27;45386;-63
2023/06/22 06:10:43;;;;;;;3.25;2.28;;;23.60;95.30;;;;;;5118017;27;45491;-64
2023/06/22 06:13:10;;;;;;;2.85;1.58;;;23.60;95.30;;;;;;5123959;27;45521;-64
2023/06/22 06:15:37;;;;;;;2.30;2.05;;;23.60;95.30;;;;;;5125980;27;45590;-64
2023/06/22 06:18:06;;;;;;;2.72;1.95;;;23.60;95.30;;;;;;5120457;27;45680;-63
2023/06/22 06:20:33;;;;;;;2.08;1.88;;;23.60;95.30;;;;;;5126151;27;45420;-64
2023/06/22 06:23:00;;;;;;;2.15;1.95;;;23.60;95.40;;;;;;5121720;27;45289;-64
2023/06/22 06:25:26;;;;;;;2.92;2.40;;;23.60;95.30;;;;;;5115114;27;46577;-63
2023/06/22 06:27:54;;;;;;;2.75;2.38;;;23.60;95.50;;;;;;5123560;27;45349;-65
2023/06/22 06:30:22;;;;;;;2.28;2.00;;;23.50;95.70;;;;;;5117999;27;45333;-63
2023/06/22 06:32:49;;;;;;;2.42;2.10;;;23.60;95.80;;;;;;5121676;27;45300;-63
2023/06/22 06:35:17;;;;;;;3.42;2.35;;;23.60;95.90;;;;;;5127576;27;45466;-64
2023/06/22 06:37:45;;;;;;;3.50;2.40;;;23.60;96.10;;;;;;5119599;27;45632;-64
2023/06/22 06:40:13;;;;;;;3.45;2.50;;;23.60;96.10;;;;;;5125186;27;45388;-63
2023/06/22 06:42:44;;;;;;;2.83;2.42;;;23.60;96.10;;;;;;5120427;27;45291;-63
2023/06/22 06:45:11;;;;;;;3.50;2.53;;;23.60;96.20;;;;;;5114570;27;45463;-63
2023/06/22 06:47:38;;;;;;;2.15;1.92;;;23.60;96.10;;;;;;5119170;27;45548;-63
2023/06/22 06:50:06;;;;;;;2.20;1.92;;;23.60;96.20;;;;;;5122496;27;45233;-63
2023/06/22 06:52:35;;;;;;;3.60;2.17;;;23.60;96.00;;;;;;5126069;27;45303;-63
2023/06/22 06:55:04;;;;;;;3.47;2.22;;;23.60;96.00;;;;;;5116915;27;45350;-62
2023/06/22 06:57:31;;;;;;;2.97;2.33;;;23.60;95.90;;;;;;5118075;27;45273;-62
2023/06/22 06:59:58;;;;;;;2.78;2.17;;;23.60;96.00;;;;;;5127122;27;45532;-63
2023/06/22 07:02:25;;;;;;;2.45;1.98;;;23.60;96.00;;;;;;5124642;27;45472;-63
2023/06/22 07:04:52;;;;;;;3.80;2.13;;;23.60;96.00;;;;;;5122269;27;46591;-63
2023/06/22 07:07:19;;;;;;;2.25;2.00;;;23.60;95.90;;;;;;5119926;27;45429;-63
2023/06/22 07:09:47;;;;;;;3.28;2.42;;;23.60;95.90;;;;;;5124116;27;45218;-63
2023/06/22 07:12:14;;;;;;;4.53;2.63;;;23.60;96.10;;;;;;5112225;27;45431;-63
2023/06/22 07:14:40;;;;;;;3.17;2.72;;;23.60;96.70;;;;;;5116189;27;45395;-63
2023/06/22 07:17:07;;;;;;;3.20;2.15;;;23.60;96.80;;;;;;5119537;27;45233;-63
2023/06/22 07:19:34;;;;;;;4.07;2.15;;;23.60;97.00;;;;;;5123912;27;45352;-63
2023/06/22 07:22:01;;;;;;;3.13;2.28;;;23.60;96.90;;;;;;5121393;27;45264;-63
2023/06/22 07:24:28;;;;;;;2.40;2.13;;;23.60;97.20;;;;;;5117510;27;46374;-64
2023/06/22 07:26:57;;;;;;;3.85;3.35;;;23.60;97.00;;;;;;5111480;27;46948;-64
2023/06/22 07:29:24;;;;;;;3.65;2.75;;;23.60;97.20;;;;;;5121832;27;45309;-64
2023/06/22 07:31:52;;;;;;;3.17;2.80;;;23.60;97.40;;;;;;5127468;27;45396;-63
2023/06/22 07:34:19;;;;;;;4.60;3.10;;;23.60;97.60;;;;;;5119084;27;47509;-63
2023/06/22 07:36:45;;;;;;;4.85;3.38;;;23.60;97.70;;;;;;5106827;27;45697;-63
2023/06/22 07:39:13;;;;;;;4.30;2.45;;;23.60;98.20;;;;;;5117050;27;45342;-63
2023/06/22 07:41:41;;;;;;;3.10;2.38;;;23.60;97.70;;;;;;5119937;27;45426;-63
2023/06/22 07:44:09;;;;;;;3.00;2.70;;;23.60;97.80;;;;;;5120848;27;45400;-64
2023/06/22 07:46:35;;;;;;;2.92;2.42;;;23.60;97.70;;;;;;5115188;27;45291;-63
2023/06/22 07:49:03;;;;;;;3.08;2.45;;;23.60;97.70;;;;;;5124057;27;45374;-63
2023/06/22 07:51:30;;;;;;;3.38;2.45;;;23.60;97.60;;;;;;5118868;27;45150;-63
2023/06/22 07:53:56;;;;;;;3.22;2.63;;;23.60;97.50;;;;;;5127381;27;45194;-63
2023/06/22 07:56:23;;;;;;;3.90;2.53;;;23.70;97.80;;;;;;5121424;27;45207;-63
2023/06/22 07:58:50;;;;;;;2.53;2.15;;;23.70;97.30;;;;;;5126157;27;45495;-62
2023/06/22 08:01:20;;;;;;;2.70;2.40;;;23.70;97.30;;;;;;5126833;27;45421;-63
2023/06/22 08:03:48;;;;;;;3.65;2.65;;;23.70;97.40;;;;;;5127024;27;47603;-63
2023/06/22 08:06:15;;;;;;;3.80;2.72;;;23.70;97.40;;;;;;5126866;27;45352;-63
2023/06/22 08:08:42;;;;;;;3.17;2.20;;;23.70;97.40;;;;;;5118309;27;45371;-63
2023/06/22 08:11:09;;;;;;;3.65;2.70;;;23.70;97.30;;;;;;5123374;27;45425;-63
2023/06/22 08:13:36;;;;;;;3.08;2.22;;;23.70;97.30;;;;;;5114266;27;45316;-63
2023/06/22 08:16:03;;;;;;;2.92;2.40;;;23.70;97.30;;;;;;5106023;27;45195;-63
2023/06/22 08:18:31;;;;;;;3.25;2.28;;;23.70;97.30;;;;;;5123013;27;45316;-63
2023/06/22 08:20:58;;;;;;;3.35;2.38;;;23.70;97.30;;;;;;5114514;27;45324;-63
2023/06/22 08:23:25;;;;;;;2.85;2.38;;;23.70;97.30;;;;;;5118155;27;46587;-63
2023/06/22 08:25:52;;;;;;;3.35;2.45;;;23.70;97.30;;;;;;5109484;27;45197;-63
2023/06/22 08:28:18;;;;;;;2.78;2.33;;;23.70;97.30;;;;;;5116218;27;45271;-63
2023/06/22 08:30:45;;;;;;;2.67;2.22;;;23.70;97.30;;;;;;5125583;27;45345;-63
2023/06/22 08:33:12;;;;;;;2.55;1.95;;;23.70;97.30;;;;;;5119700;27;46653;-63
2023/06/22 08:35:40;;;;;;;3.00;2.30;;;23.70;97.30;;;;;;5126286;27;45440;-63
2023/06/22 08:38:07;;;;;;;2.38;2.15;;;23.70;97.30;;;;;;5119600;27;45224;-63
2023/06/22 08:40:34;;;;;;;2.95;2.22;;;23.70;97.30;;;;;;5111362;27;45300;-63
2023/06/22 08:43:01;;;;;;;3.13;2.10;;;23.70;97.30;;;;;;5120913;27;46526;-63
2023/06/22 08:45:28;;;;;;;2.78;2.30;;;23.70;97.30;;;;;;5105754;27;45339;-64
2023/06/22 08:47:54;;;;;;;3.05;2.15;;;23.70;97.30;;;;;;5125952;27;45259;-64
2023/06/22 08:50:21;;;;;;;2.33;1.90;;;23.70;97.30;;;;;;5109474;27;45248;-64
2023/06/22 08:52:50;;;;;;;3.80;2.38;;;23.70;97.80;;;;;;5117287;27;45419;-63
2023/06/22 08:55:16;;;;;;;2.83;2.13;;;23.70;97.40;;;;;;5126202;27;45355;-63
2023/06/22 08:57:43;;;;;;;2.85;2.40;;;23.70;97.30;;;;;;5125972;27;45320;-63
2023/06/22 09:00:20;;;;;;;3.65;2.10;;;23.70;97.40;;;;;;5119434;27;45248;-63
2023/06/22 09:02:48;;;;;;;2.42;2.22;;;23.70;97.40;;;;;;5105182;27;47524;-63
2023/06/22 09:05:15;;;;;;;2.97;2.10;;;23.70;97.50;;;;;;5121255;27;45306;-63
2023/06/22 09:07:43;;;;;;;2.50;1.90;;;23.70;97.40;;;;;;5106943;27;45411;-63
2023/06/22 09:10:11;;;;;;;2.65;2.33;;;23.80;97.40;;;;;;5113436;27;45482;-63
2023/06/22 09:12:38;;;;;;;2.70;2.30;;;23.80;97.60;;;;;;5119199;27;45331;-63
2023/06/22 09:15:07;;;;;;;2.63;2.13;;;23.70;97.60;;;;;;5115390;27;45334;-63
2023/06/22 09:17:34;;;;;;;2.75;2.33;;;23.70;97.60;;;;;;5117023;27;45461;-63
2023/06/22 09:20:01;;;;;;;2.95;2.38;;;23.70;97.70;;;;;;5123008;27;45260;-63
2023/06/22 09:22:29;;;;;;;3.13;2.60;;;23.80;97.80;;;;;;5117409;27;46091;-63
2023/06/22 09:24:56;;;;;;;2.78;2.13;;;23.80;97.90;;;;;;5114731;27;45909;-63
2023/06/22 09:27:24;;;;;;;2.92;2.28;;;23.80;97.90;;;;;;5108828;27;45448;-63
2023/06/22 09:29:51;;;;;;;2.45;2.00;;;23.80;97.80;;;;;;5108319;27;45183;-63
2023/06/22 09:32:18;;;;;;;3.35;2.53;;;23.80;97.80;;;;;;5117186;27;45367;-63
2023/06/22 09:34:45;;;;;;;2.40;2.20;;;23.70;97.70;;;;;;5112286;27;45661;-63
2023/06/22 09:37:11;;;;;;;2.60;2.20;;;23.80;97.80;;;;;;5104812;27;45486;-63
2023/06/22 09:39:38;;;;;;;2.30;1.98;;;23.80;97.70;;;;;;5122566;27;45478;-63
2023/06/22 09:42:06;;;;;;;2.65;2.10;;;23.80;97.70;;;;;;5104680;27;46594;-63
2023/06/22 09:44:34;;;;;;;3.33;2.00;;;23.70;97.60;;;;;;5120934;27;45400;-63
2023/06/22 09:47:01;;;;;;;2.63;2.25;;;23.70;97.60;;;;;;5109691;27;45291;-64
2023/06/22 09:49:28;;;;;;;3.33;2.53;;;23.70;97.70;;;;;;5116203;27;45434;-63
2023/06/22 09:51:54;;;;;;;3.55;2.55;;;23.80;97.80;;;;;;5108815;27;46606;-63
2023/06/22 09:54:21;;;;;;;2.70;2.30;;;23.70;97.70;;;;;;5108924;27;45673;-64
2023/06/22 09:56:48;;;;;;;2.60;2.35;;;23.70;97.70;;;;;;5124542;27;45364;-63
2023/06/22 09:59:15;;;;;;;3.10;2.58;;;23.70;97.70;;;;;;5125202;27;45444;-63
2023/06/22 10:01:43;;;;;;;2.25;2.05;;;23.80;97.70;;;;;;5125219;27;47251;-63
2023/06/22 10:04:10;;;;;;;2.88;2.40;;;23.80;97.60;;;;;;5110393;27;45430;-63
2023/06/22 10:06:39;;;;;;;2.58;2.30;;;23.80;97.60;;;;;;5120190;27;45364;-63
2023/06/22 10:09:06;;;;;;;2.80;2.40;;;23.80;97.60;;;;;;5114583;27;45605;-63
2023/06/22 10:11:34;;;;;;;2.85;2.50;;;23.80;97.70;;;;;;5106802;27;46600;-63
2023/06/22 10:14:01;;;;;;;2.45;2.20;;;23.80;97.50;;;;;;5116052;27;45239;-63
2023/06/22 10:16:31;;;;;;;3.20;2.60;;;23.80;97.50;;;;;;5121744;27;45259;-63
2023/06/22 10:18:59;;;;;;;3.42;2.38;;;23.80;97.50;;;;;;5104625;27;45464;-63
2023/06/22 10:21:27;;;;;;;2.35;2.08;;;23.80;97.30;;;;;;5115410;27;46608;-63
2023/06/22 10:23:53;;;;;;;2.70;2.17;;;23.80;97.20;;;;;;5125246;27;45219;-63
2023/06/22 10:26:20;;;;;;;2.22;1.77;;;23.80;97.20;;;;;;5124684;27;45279;-63
2023/06/22 10:28:47;;;;;;;3.20;2.47;;;23.80;97.10;;;;;;5116224;27;45445;-63
2023/06/22 10:31:14;;;;;;;2.60;1.80;;;23.80;97.00;;;;;;5124919;27;47511;-63
2023/06/22 10:33:41;;;;;;;3.28;2.38;;;23.80;97.00;;;;;;5118289;27;46697;-63
2023/06/22 10:36:09;;;;;;;2.38;2.05;;;23.80;97.00;;;;;;5123236;27;45562;-63
2023/06/22 10:38:36;;;;;;;2.92;1.92;;;23.80;97.00;;;;;;5122546;27;45458;-63
2023/06/22 10:41:03;;;;;;;2.45;2.00;;;23.80;97.00;;;;;;5121027;27;45508;-63
2023/06/22 10:43:29;;;;;;;2.50;1.88;;;23.80;97.10;;;;;;5116521;27;45428;-63
2023/06/22 10:45:56;;;;;;;2.33;1.98;;;23.80;97.30;;;;;;5112843;27;45149;-63
2023/06/22 10:48:23;;;;;;;2.47;2.17;;;23.80;97.50;;;;;;5124434;27;45388;-63
2023/06/22 10:50:50;;;;;;;2.42;2.10;;;23.80;97.50;;;;;;5121224;27;45251;-63
2023/06/22 10:53:18;;;;;;;2.80;2.28;;;23.80;98.20;;;;;;5110552;27;45336;-63
2023/06/22 10:55:45;;;;;;;2.65;2.22;;;23.80;98.40;;;;;;5117863;27;45397;-63
2023/06/22 10:58:11;;;;;;;4.50;2.40;;;23.80;98.70;;;;;;5117645;27;45257;-63
2023/06/22 11:00:38;;;;;;;3.63;2.60;;;23.80;99.10;;;;;;5118449;27;45404;-63
2023/06/22 11:03:05;;;;;;;3.63;2.67;;;23.80;99.30;;;;;;5121367;27;45301;-63
2023/06/22 11:05:33;;;;;;;2.97;2.40;;;23.80;99.20;;;;;;5120028;27;45482;-63
2023/06/22 11:07:59;;;;;;;2.88;2.35;;;23.80;98.90;;;;;;5125104;27;45413;-64
2023/06/22 11:10:28;;;;;;;3.95;2.92;;;23.80;99.10;;;;;;5124395;27;45362;-64
2023/06/22 11:12:55;;;;;;;3.78;2.90;;;23.80;99.30;;;;;;5124373;27;45447;-64
2023/06/22 11:15:22;;;;;;;3.50;2.88;;;23.80;99.00;;;;;;5117634;27;45306;-64
2023/06/22 11:17:48;;;;;;;3.42;2.65;;;23.80;98.90;;;;;;5116759;27;45759;-64
2023/06/22 11:20:16;;;;;;;3.53;2.70;;;23.80;99.60;;;;;;5114257;27;46615;-65
2023/06/22 11:22:43;;;;;;;5.72;3.50;;;23.80;99.90;;;;;;5113352;27;45420;-63
2023/06/22 11:25:11;;;;;;;4.32;3.47;;;23.80;99.90;;;;;;5127294;27;45272;-63
2023/06/22 11:27:39;;;;;;;4.03;3.08;;;23.80;99.90;;;;;;5118340;27;45468;-64
2023/06/22 11:30:07;;;;;;;4.00;3.20;;;23.80;99.90;;;;;;5113802;27;45289;-64
2023/06/22 11:32:35;;;;;;;4.82;3.00;;;23.80;99.90;;;;;;5124230;27;45398;-64
2023/06/22 11:35:02;;;;;;;4.80;3.63;;;23.80;99.90;;;;;;5118148;27;45288;-64
2023/06/22 11:37:29;;;;;;;4.85;3.42;;;23.80;99.90;;;;;;5119954;27;45529;-64
2023/06/22 11:39:55;;;;;;;4.15;3.45;;;23.80;99.90;;;;;;5126615;27;46592;-64
2023/06/22 11:42:23;;;;;;;4.78;3.92;;;23.80;99.90;;;;;;5120185;27;45543;-64
2023/06/22 11:44:51;;;;;;;5.35;4.00;;;23.80;99.90;;;;;;5126820;27;45266;-63
2023/06/22 11:47:18;;;;;;;4.65;3.55;;;23.80;99.90;;;;;;5124416;27;45309;-64
2023/06/22 11:49:45;;;;;;;5.53;3.80;;;23.80;99.90;;;;;;5124873;27;46614;-64
2023/06/22 11:52:11;;;;;;;5.75;3.60;;;23.80;99.90;;;;;;5127363;27;45278;-64
2023/06/22 11:54:39;;;;;;;5.63;3.90;;;23.80;99.90;;;;;;5124952;27;45323;-63
2023/06/22 11:57:06;;;;;;;5.35;4.10;;;23.80;99.90;;;;;;5116236;27;45395;-64
2023/06/22 11:59:33;;;;;;;4.72;4.15;;;23.80;99.90;;;;;;5126059;27;46624;-63
2023/06/22 12:02:01;;;;;;;6.15;4.10;;;23.80;99.90;;;;;;5117011;27;45346;-63
2023/06/22 12:04:28;;;;;;;4.63;3.90;;;23.80;99.90;;;;;;5108624;27;45399;-64
2023/06/22 12:06:54;;;;;;;6.72;3.97;;;23.80;99.90;;;;;;5115778;27;45345;-64
2023/06/22 12:09:21;;;;;;;4.65;4.10;;;23.80;99.90;;;;;;5117911;27;48009;-63
2023/06/22 12:11:48;;;;;;;5.22;4.30;;;23.80;99.90;;;;;;5122055;27;45450;-63
2023/06/22 12:14:15;;;;;;;6.80;4.63;;;23.80;99.90;;;;;;5116201;27;45307;-63
2023/06/22 12:16:43;;;;;;;6.63;4.80;;;23.80;99.90;;;;;;5122289;27;45287;-63
2023/06/22 12:19:12;;;;;;;5.38;4.25;;;23.80;99.90;;;;;;5118722;27;46501;-63
2023/06/22 12:21:39;;;;;;;5.28;4.28;;;23.80;99.90;;;;;;5121576;27;45273;-63
2023/06/22 12:24:06;;;;;;;6.43;4.35;;;23.80;99.90;;;;;;5110123;27;45293;-64
2023/06/22 12:26:32;;;;;;;5.97;4.57;;;23.80;99.90;;;;;;5120177;27;45396;-63
2023/06/22 12:28:59;;;;;;;5.05;4.07;;;23.80;99.90;;;;;;5115909;27;47510;-63
2023/06/22 12:31:26;;;;;;;6.18;4.78;;;23.80;99.90;;;;;;5116755;27;45297;-63
2023/06/22 12:33:53;;;;;;;5.85;4.40;;;23.80;99.90;;;;;;5117745;27;45357;-63
2023/06/22 12:36:21;;;;;;;5.95;4.53;;;23.80;99.90;;;;;;5125496;27;45335;-63
2023/06/22 12:38:47;;;;;;;6.90;4.88;;;23.80;99.90;;;;;;5109685;27;47092;-63
2023/06/22 12:41:14;;;;;;;5.45;4.53;;;23.80;99.90;;;;;;5116699;27;45328;-63
2023/06/22 12:43:41;;;;;;;6.80;4.80;;;23.80;99.90;;;;;;5111281;27;45430;-64
2023/06/22 12:46:08;;;;;;;7.90;4.35;;;23.80;99.90;;;;;;5117725;27;45367;-64
2023/06/22 12:48:41;;;;;;;6.72;5.22;;;23.80;99.90;;;;;;5118265;27;46582;-64